Saturday, August 18, 2018, 2:16 AM CDT
Back to Local

KMDW, Chicago Midway Airport

Location: Chicago, IL, United States Lat: 41.783
Local Time: 2:16 AM CDT ( 7:16 GMT) Lon: -87.75
Time Zone: US/Central Elev: 620 ft

Show me the last for .
Show Decoded

2018-08-18 01:53 METAR KMDW 180653Z 04003KT 10SM FEW018 FEW120 SCT250 23/22 A2999 RMK AO2 SLP143
                 T02330217 =
2018-08-18 00:53 METAR KMDW 180553Z 02004KT 10SM FEW018 FEW038 FEW120 SCT250 23/22 A2999 RMK AO2
                 SLP147 60006 T02330217 10256 20233 402940206 53000 =
2018-08-17 23:53 METAR KMDW 180453Z 03004KT 10SM FEW018 FEW038 SCT050 SCT250 24/22 A3000 RMK AO2
                 SLP148 T02390217 =
2018-08-17 22:53 METAR KMDW 180353Z 01003KT 10SM FEW016 SCT036 BKN050 24/22 A2998 RMK AO2 SLP144
                 T02390222 =
2018-08-17 21:53 METAR KMDW 180253Z 36006KT 9SM FEW024 BKN036 BKN060 BKN130 BKN250 24/22 A2999
                 RMK AO2 RAB42E53 SLP148 VCSH S-NW P0006 60006 T02390222 51015 =
2018-08-17 20:53 METAR KMDW 180153Z 08005KT 10SM FEW025 SCT040 SCT130 BKN250 25/21 A2999 RMK AO2
                 SLP147 T02500206 =
2018-08-17 19:53 METAR KMDW 180053Z 08009KT 10SM FEW030 SCT055 SCT130 BKN250 25/20 A2997 RMK AO2
                 SLP141 CBMAM DSNT W T02500200 =
2018-08-17 18:53 METAR KMDW 172353Z 07007KT 10SM FEW030 FEW055 SCT130 BKN250 26/19 A2995 RMK AO2
                 LTG DSNT W SLP133 CB DSNT SW 60000 T02560194 10294 20256 51008 =
2018-08-17 17:53 METAR KMDW 172253Z 10008KT 10SM SCT042 SCT065 BKN130 BKN250 26/20 A2994 RMK AO2
                 TSE26 SLP131 CB DSNT SE-SW T02560200 =
2018-08-17 17:27 METAR KMDW 172227Z 10010KT 10SM SCT042 SCT065 BKN120 BKN250 26/21 A2994 RMK AO2
                 TSE26 CB DSNT S-SW T02560206 =
2018-08-17 16:53 METAR KMDW 172153Z 09012KT 10SM TS SCT035 SCT045CB BKN120 BKN250 26/21 A2993 RMK
                 AO2 RAB28E47 TSB53 SLP127 OCNL LTGIC VC S TS VC S MOV S VIS S 3 P0000 T02560206
                 =
2018-08-17 15:53 METAR KMDW 172053Z 06012KT 10SM SCT026 BKN035 BKN049 BKN250 27/21 A2992 RMK AO2
                 SLP123 T02720211 56011 =
2018-08-17 14:53 METAR KMDW 171953Z 04004KT 9SM SCT030 BKN036 BKN100 BKN250 28/21 A2993 RMK AO2
                 SLP125 T02780206 =
2018-08-17 13:53 METAR KMDW 171853Z 06004KT 8SM FEW028 SCT036 BKN100 BKN250 27/20 A2995 RMK AO2
                 SLP131 T02720200 =
2018-08-17 12:53 METAR KMDW 171753Z 32003KT 8SM SCT025 BKN037 OVC090 26/20 A2996 RMK AO2 SLP135
                 60000 T02610200 10261 20211 53003 $ =
2018-08-17 11:53 METAR KMDW 171653Z 23006KT 8SM FEW023 BKN028 BKN150 26/21 A2995 RMK AO2 SLP132
                 T02610206 =
2018-08-17 10:53 METAR KMDW 171553Z VRB05KT 9SM BKN015 BKN080 BKN180 24/21 A2995 RMK AO2 SLP132
                 T02440206 =
2018-08-17 10:49 METAR KMDW 171549Z 18006KT 9SM BKN015 BKN080 BKN180 25/21 A2995 RMK AO2 =
2018-08-17 09:53 METAR KMDW 171453Z 00000KT 9SM FEW010 SCT035 BKN080 BKN180 23/21 A2994 RMK AO2
                 RAB06E47 SLP129 P0000 60000 T02330206 58005 =
2018-08-17 08:53 METAR KMDW 171353Z 28004KT 9SM FEW036 SCT075 BKN100 OVC150 22/21 A2995 RMK AO2
                 RAB12E50 SLP133 P0000 T02220206 =
2018-08-17 07:53 METAR KMDW 171253Z 00000KT 7SM FEW005 BKN110 BKN150 OVC200 22/20 A2995 RMK AO2
                 SLP132 T02170200 =
2018-08-17 07:17 METAR KMDW 171217Z 19005KT 4SM BR SCT005 BKN030 BKN150 OVC200 22/21 A2995 RMK
                 AO2 T02170206 =
2018-08-17 06:53 METAR KMDW 171153Z 21006KT 3SM BR OVC005 21/21 A2996 RMK AO2 SLP135 60015 70018
                 T02110206 10222 20206 53013 =
2018-08-17 05:53 METAR KMDW 171053Z 20005KT 5SM BR OVC030 22/21 A2994 RMK AO2 SLP129 T02170211 =
2018-08-17 04:53 METAR KMDW 170953Z 21003KT 10SM BKN130 OVC250 21/21 A2992 RMK AO2 SLP123
                 T02110206 =
2018-08-17 03:53 METAR KMDW 170853Z 00000KT 10SM FEW005 FEW110 OVC250 21/21 A2992 RMK AO2
                 RAB00E19 SLP121 P0000 60015 T02110206 55015 =
2018-08-17 02:53 METAR KMDW 170753Z 04004KT 10SM FEW005 SCT120 OVC160 21/20 A2990 RMK AO2 LTG
                 DSNT E RAE03 TSE03 SLP115 OCNL LTGICCC DSNT NE-SE CB DSNT NE-SE P0000 T02110200
                 =

Support USWX by starting your Amazon purchase here.